SBRJ/SDU METAR and TAF weather

Enter ICAO airport designator
Station Type Date Time Source
SBRJ METAR 2018/12/11 21:00 UTC NOAA

SBRJ 112100Z 18010KT 9999 FEW030 28/20 Q1015


Station Type Date Time Source
SBRJ Decoded METAR 2018/12/11 21:00 UTC NOAA

Rio De Janeiro Aeroporto , Brazil (SBRJ) 22-54S 043-10W
Dec 11, 2018 - 04:00 PM EST / 2018.12.11 2100 UTC
Wind: from the S (180 degrees) at 12 MPH (10 KT):0
Visibility: greater than 7 mile(s):0
Sky conditions: mostly clear
Temperature: 82 F (28 C)
Dew Point: 68 F (20 C)
Relative Humidity: 61%
Pressure (altimeter): 29.97 in. Hg (1015 hPa)
ob: SBRJ 112100Z 18010KT 9999 FEW030 28/20 Q1015
cycle: 21

Station Type Date Time Source
SBRJ TAF 2018/12/11 18:27 UTC NOAA

TAF SBRJ 111500Z 1118/1206 16012KT 9999 FEW030TX30/1118Z TN23/1206Z
BECMG 1201/1203 35005KT CAVOK
RMK PHQ


Example: see airport list